sensor_id;sensor_type;location;lat;lon;timestamp;P1;durP1;ratioP1;P2;durP2;ratioP2
31126;SDS011;17775;57.948;12.514;2023-04-01T00:00:23;2.78;;;1.30;;
31126;SDS011;17775;57.948;12.514;2023-04-01T00:02:50;3.80;;;1.75;;
31126;SDS011;17775;57.948;12.514;2023-04-01T00:05:16;2.78;;;1.10;;
31126;SDS011;17775;57.948;12.514;2023-04-01T00:07:46;1.80;;;1.15;;
31126;SDS011;17775;57.948;12.514;2023-04-01T00:10:13;3.17;;;1.58;;
31126;SDS011;17775;57.948;12.514;2023-04-01T00:12:39;3.47;;;1.30;;
31126;SDS011;17775;57.948;12.514;2023-04-01T00:15:07;3.90;;;1.40;;
31126;SDS011;17775;57.948;12.514;2023-04-01T00:17:33;2.60;;;1.30;;
31126;SDS011;17775;57.948;12.514;2023-04-01T00:20:00;2.75;;;1.42;;
31126;SDS011;17775;57.948;12.514;2023-04-01T00:22:27;2.38;;;1.20;;
31126;SDS011;17775;57.948;12.514;2023-04-01T00:24:53;2.83;;;1.30;;
31126;SDS011;17775;57.948;12.514;2023-04-01T00:27:20;1.88;;;1.13;;
31126;SDS011;17775;57.948;12.514;2023-04-01T00:29:46;2.80;;;1.50;;
31126;SDS011;17775;57.948;12.514;2023-04-01T00:32:14;3.22;;;1.55;;
31126;SDS011;17775;57.948;12.514;2023-04-01T00:34:41;2.40;;;1.30;;
31126;SDS011;17775;57.948;12.514;2023-04-01T00:37:07;2.95;;;1.33;;
31126;SDS011;17775;57.948;12.514;2023-04-01T00:39:34;2.90;;;1.30;;
31126;SDS011;17775;57.948;12.514;2023-04-01T00:42:02;4.10;;;1.50;;
31126;SDS011;17775;57.948;12.514;2023-04-01T00:44:30;3.78;;;1.38;;
31126;SDS011;17775;57.948;12.514;2023-04-01T00:46:59;3.30;;;1.50;;
31126;SDS011;17775;57.948;12.514;2023-04-01T00:49:45;2.10;;;1.33;;
31126;SDS011;17775;57.948;12.514;2023-04-01T00:52:13;2.58;;;1.35;;
31126;SDS011;17775;57.948;12.514;2023-04-01T00:54:42;2.50;;;1.30;;
31126;SDS011;17775;57.948;12.514;2023-04-01T00:57:10;3.58;;;1.33;;
31126;SDS011;17775;57.948;12.514;2023-04-01T00:59:42;3.47;;;1.45;;
31126;SDS011;17775;57.948;12.514;2023-04-01T01:02:10;2.78;;;1.40;;
31126;SDS011;17775;57.948;12.514;2023-04-01T01:04:37;2.83;;;1.40;;
31126;SDS011;17775;57.948;12.514;2023-04-01T01:07:21;3.38;;;1.60;;
31126;SDS011;17775;57.948;12.514;2023-04-01T01:18:23;2.85;;;1.17;;
31126;SDS011;17775;57.948;12.514;2023-04-01T01:30:46;2.35;;;1.30;;
31126;SDS011;17775;57.948;12.514;2023-04-01T01:35:46;2.85;;;1.77;;
31126;SDS011;17775;57.948;12.514;2023-04-01T01:38:15;2.63;;;1.30;;
31126;SDS011;17775;57.948;12.514;2023-04-01T01:40:42;2.72;;;1.48;;
31126;SDS011;17775;57.948;12.514;2023-04-01T01:43:11;3.28;;;1.13;;
31126;SDS011;17775;57.948;12.514;2023-04-01T01:45:40;2.50;;;1.50;;
31126;SDS011;17775;57.948;12.514;2023-04-01T01:48:07;2.38;;;1.20;;
31126;SDS011;17775;57.948;12.514;2023-04-01T01:50:35;1.77;;;1.02;;
31126;SDS011;17775;57.948;12.514;2023-04-01T01:53:06;3.13;;;1.40;;
31126;SDS011;17775;57.948;12.514;2023-04-01T01:55:34;3.95;;;1.48;;
31126;SDS011;17775;57.948;12.514;2023-04-01T01:58:35;2.30;;;1.23;;
31126;SDS011;17775;57.948;12.514;2023-04-01T02:01:01;2.55;;;1.38;;
31126;SDS011;17775;57.948;12.514;2023-04-01T02:03:29;2.75;;;1.20;;
31126;SDS011;17775;57.948;12.514;2023-04-01T02:05:59;2.90;;;1.30;;
31126;SDS011;17775;57.948;12.514;2023-04-01T02:10:58;2.65;;;1.10;;
31126;SDS011;17775;57.948;12.514;2023-04-01T02:13:31;1.90;;;1.20;;
31126;SDS011;17775;57.948;12.514;2023-04-01T02:16:00;5.25;;;1.40;;
31126;SDS011;17775;57.948;12.514;2023-04-01T02:18:27;3.70;;;1.05;;
31126;SDS011;17775;57.948;12.514;2023-04-01T02:20:56;2.75;;;1.33;;
31126;SDS011;17775;57.948;12.514;2023-04-01T02:23:26;1.95;;;1.20;;
31126;SDS011;17775;57.948;12.514;2023-04-01T02:25:54;3.33;;;1.40;;
31126;SDS011;17775;57.948;12.514;2023-04-01T02:28:20;3.03;;;1.20;;
31126;SDS011;17775;57.948;12.514;2023-04-01T02:30:48;2.30;;;1.25;;
31126;SDS011;17775;57.948;12.514;2023-04-01T02:33:16;3.45;;;1.52;;
31126;SDS011;17775;57.948;12.514;2023-04-01T02:35:43;3.20;;;1.27;;
31126;SDS011;17775;57.948;12.514;2023-04-01T02:38:09;2.60;;;1.13;;
31126;SDS011;17775;57.948;12.514;2023-04-01T02:40:43;6.30;;;1.30;;
31126;SDS011;17775;57.948;12.514;2023-04-01T02:43:10;3.15;;;1.10;;
31126;SDS011;17775;57.948;12.514;2023-04-01T02:45:37;2.97;;;1.17;;
31126;SDS011;17775;57.948;12.514;2023-04-01T02:48:04;5.03;;;1.45;;
31126;SDS011;17775;57.948;12.514;2023-04-01T02:50:30;4.10;;;1.58;;
31126;SDS011;17775;57.948;12.514;2023-04-01T02:52:57;3.28;;;1.27;;
31126;SDS011;17775;57.948;12.514;2023-04-01T02:55:23;3.88;;;1.30;;
31126;SDS011;17775;57.948;12.514;2023-04-01T02:57:50;4.28;;;1.52;;
31126;SDS011;17775;57.948;12.514;2023-04-01T03:00:16;2.08;;;1.10;;
31126;SDS011;17775;57.948;12.514;2023-04-01T03:02:43;2.55;;;1.30;;
31126;SDS011;17775;57.948;12.514;2023-04-01T03:05:10;3.38;;;1.58;;
31126;SDS011;17775;57.948;12.514;2023-04-01T03:07:36;2.33;;;1.23;;
31126;SDS011;17775;57.948;12.514;2023-04-01T03:10:03;1.77;;;0.90;;
31126;SDS011;17775;57.948;12.514;2023-04-01T03:12:29;1.77;;;1.20;;
31126;SDS011;17775;57.948;12.514;2023-04-01T03:14:59;3.33;;;1.30;;
31126;SDS011;17775;57.948;12.514;2023-04-01T03:17:37;3.42;;;1.83;;
31126;SDS011;17775;57.948;12.514;2023-04-01T03:20:03;3.47;;;1.20;;
31126;SDS011;17775;57.948;12.514;2023-04-01T03:22:31;3.70;;;1.25;;
31126;SDS011;17775;57.948;12.514;2023-04-01T03:24:57;1.73;;;1.20;;
31126;SDS011;17775;57.948;12.514;2023-04-01T03:27:26;3.20;;;1.17;;
31126;SDS011;17775;57.948;12.514;2023-04-01T03:29:52;2.67;;;1.17;;
31126;SDS011;17775;57.948;12.514;2023-04-01T03:32:18;2.00;;;0.90;;
31126;SDS011;17775;57.948;12.514;2023-04-01T03:34:45;2.00;;;1.00;;
31126;SDS011;17775;57.948;12.514;2023-04-01T03:37:11;1.67;;;0.98;;
31126;SDS011;17775;57.948;12.514;2023-04-01T03:39:38;5.10;;;1.58;;
31126;SDS011;17775;57.948;12.514;2023-04-01T03:42:04;2.45;;;1.10;;
31126;SDS011;17775;57.948;12.514;2023-04-01T03:44:33;3.65;;;1.55;;
31126;SDS011;17775;57.948;12.514;2023-04-01T03:47:00;2.22;;;1.63;;
31126;SDS011;17775;57.948;12.514;2023-04-01T03:49:26;2.90;;;1.40;;
31126;SDS011;17775;57.948;12.514;2023-04-01T03:51:53;3.33;;;1.65;;
31126;SDS011;17775;57.948;12.514;2023-04-01T03:54:19;2.00;;;1.20;;
31126;SDS011;17775;57.948;12.514;2023-04-01T03:56:46;2.38;;;1.33;;
31126;SDS011;17775;57.948;12.514;2023-04-01T03:59:13;2.40;;;1.10;;
31126;SDS011;17775;57.948;12.514;2023-04-01T04:01:39;2.70;;;1.20;;
31126;SDS011;17775;57.948;12.514;2023-04-01T04:04:06;3.50;;;1.30;;
31126;SDS011;17775;57.948;12.514;2023-04-01T04:06:35;2.63;;;1.20;;
31126;SDS011;17775;57.948;12.514;2023-04-01T04:09:02;2.30;;;1.10;;
31126;SDS011;17775;57.948;12.514;2023-04-01T04:11:29;3.22;;;1.77;;
31126;SDS011;17775;57.948;12.514;2023-04-01T04:13:56;3.13;;;1.00;;
31126;SDS011;17775;57.948;12.514;2023-04-01T04:16:23;3.45;;;1.17;;
31126;SDS011;17775;57.948;12.514;2023-04-01T04:18:50;3.22;;;1.10;;
31126;SDS011;17775;57.948;12.514;2023-04-01T04:21:17;2.83;;;1.17;;
31126;SDS011;17775;57.948;12.514;2023-04-01T04:23:46;4.45;;;1.13;;
31126;SDS011;17775;57.948;12.514;2023-04-01T04:26:13;4.25;;;1.33;;
31126;SDS011;17775;57.948;12.514;2023-04-01T04:28:39;2.75;;;1.25;;
31126;SDS011;17775;57.948;12.514;2023-04-01T04:31:06;1.48;;;0.93;;
31126;SDS011;17775;57.948;12.514;2023-04-01T04:33:34;2.17;;;1.10;;
31126;SDS011;17775;57.948;12.514;2023-04-01T04:36:01;1.75;;;1.00;;
31126;SDS011;17775;57.948;12.514;2023-04-01T04:38:28;2.13;;;1.00;;
31126;SDS011;17775;57.948;12.514;2023-04-01T04:40:55;4.72;;;1.42;;
31126;SDS011;17775;57.948;12.514;2023-04-01T04:43:23;2.75;;;1.50;;
31126;SDS011;17775;57.948;12.514;2023-04-01T04:45:50;2.80;;;1.42;;
31126;SDS011;17775;57.948;12.514;2023-04-01T04:48:17;2.50;;;1.20;;
31126;SDS011;17775;57.948;12.514;2023-04-01T04:50:49;3.88;;;1.10;;
31126;SDS011;17775;57.948;12.514;2023-04-01T04:53:16;3.00;;;1.27;;
31126;SDS011;17775;57.948;12.514;2023-04-01T04:55:43;3.70;;;1.20;;
31126;SDS011;17775;57.948;12.514;2023-04-01T04:58:10;2.40;;;1.33;;
31126;SDS011;17775;57.948;12.514;2023-04-01T05:00:37;4.53;;;1.45;;
31126;SDS011;17775;57.948;12.514;2023-04-01T05:03:03;3.88;;;1.30;;
31126;SDS011;17775;57.948;12.514;2023-04-01T05:05:30;1.63;;;0.90;;
31126;SDS011;17775;57.948;12.514;2023-04-01T05:07:57;3.13;;;1.52;;
31126;SDS011;17775;57.948;12.514;2023-04-01T05:10:23;1.67;;;1.10;;
31126;SDS011;17775;57.948;12.514;2023-04-01T05:12:49;6.35;;;2.30;;
31126;SDS011;17775;57.948;12.514;2023-04-01T05:15:16;3.92;;;2.10;;
31126;SDS011;17775;57.948;12.514;2023-04-01T05:17:43;3.33;;;2.15;;
31126;SDS011;17775;57.948;12.514;2023-04-01T05:20:11;2.50;;;1.80;;
31126;SDS011;17775;57.948;12.514;2023-04-01T05:22:37;6.40;;;4.43;;
31126;SDS011;17775;57.948;12.514;2023-04-01T05:25:04;4.82;;;3.42;;
31126;SDS011;17775;57.948;12.514;2023-04-01T05:27:31;4.10;;;2.42;;
31126;SDS011;17775;57.948;12.514;2023-04-01T05:29:57;4.03;;;1.92;;
31126;SDS011;17775;57.948;12.514;2023-04-01T05:32:24;2.55;;;1.50;;
31126;SDS011;17775;57.948;12.514;2023-04-01T05:34:51;2.88;;;1.38;;
31126;SDS011;17775;57.948;12.514;2023-04-01T05:37:17;4.63;;;1.40;;
31126;SDS011;17775;57.948;12.514;2023-04-01T05:39:44;4.30;;;1.88;;
31126;SDS011;17775;57.948;12.514;2023-04-01T05:42:11;3.47;;;2.08;;
31126;SDS011;17775;57.948;12.514;2023-04-01T05:44:37;6.07;;;1.73;;
31126;SDS011;17775;57.948;12.514;2023-04-01T05:47:04;3.20;;;1.40;;
31126;SDS011;17775;57.948;12.514;2023-04-01T05:49:30;5.20;;;1.40;;
31126;SDS011;17775;57.948;12.514;2023-04-01T05:51:57;5.57;;;1.63;;
31126;SDS011;17775;57.948;12.514;2023-04-01T05:54:23;2.72;;;1.58;;
31126;SDS011;17775;57.948;12.514;2023-04-01T05:56:50;2.58;;;1.20;;
31126;SDS011;17775;57.948;12.514;2023-04-01T05:59:16;7.80;;;1.85;;
31126;SDS011;17775;57.948;12.514;2023-04-01T06:01:43;4.25;;;1.33;;
31126;SDS011;17775;57.948;12.514;2023-04-01T06:04:13;2.38;;;1.25;;
31126;SDS011;17775;57.948;12.514;2023-04-01T06:06:40;3.10;;;1.38;;
31126;SDS011;17775;57.948;12.514;2023-04-01T06:09:10;4.07;;;1.25;;
31126;SDS011;17775;57.948;12.514;2023-04-01T06:11:43;1.90;;;1.00;;
31126;SDS011;17775;57.948;12.514;2023-04-01T06:17:07;1.83;;;1.23;;
31126;SDS011;17775;57.948;12.514;2023-04-01T06:50:47;3.78;;;1.25;;
31126;SDS011;17775;57.948;12.514;2023-04-01T06:53:23;5.28;;;1.23;;
31126;SDS011;17775;57.948;12.514;2023-04-01T06:55:53;1.60;;;0.90;;
31126;SDS011;17775;57.948;12.514;2023-04-01T06:58:23;2.78;;;0.93;;
31126;SDS011;17775;57.948;12.514;2023-04-01T07:01:09;4.57;;;1.80;;
31126;SDS011;17775;57.948;12.514;2023-04-01T07:03:44;6.80;;;1.52;;
31126;SDS011;17775;57.948;12.514;2023-04-01T07:06:36;3.13;;;1.23;;
31126;SDS011;17775;57.948;12.514;2023-04-01T07:09:02;2.38;;;1.00;;
31126;SDS011;17775;57.948;12.514;2023-04-01T07:11:32;5.20;;;1.20;;
31126;SDS011;17775;57.948;12.514;2023-04-01T07:14:41;3.20;;;1.17;;
31126;SDS011;17775;57.948;12.514;2023-04-01T07:16:50;4.75;;;1.83;;
31126;SDS011;17775;57.948;12.514;2023-04-01T07:19:24;2.35;;;0.95;;
31126;SDS011;17775;57.948;12.514;2023-04-01T07:21:54;2.58;;;0.80;;
31126;SDS011;17775;57.948;12.514;2023-04-01T07:24:40;2.50;;;0.98;;
31126;SDS011;17775;57.948;12.514;2023-04-01T07:27:12;1.63;;;0.85;;
31126;SDS011;17775;57.948;12.514;2023-04-01T07:29:39;2.55;;;0.98;;
31126;SDS011;17775;57.948;12.514;2023-04-01T07:34:57;2.70;;;1.30;;
31126;SDS011;17775;57.948;12.514;2023-04-01T07:40:05;1.80;;;1.13;;
31126;SDS011;17775;57.948;12.514;2023-04-01T07:50:32;2.17;;;0.90;;
31126;SDS011;17775;57.948;12.514;2023-04-01T08:03:46;2.63;;;1.08;;
31126;SDS011;17775;57.948;12.514;2023-04-01T08:06:24;1.85;;;1.00;;
31126;SDS011;17775;57.948;12.514;2023-04-01T08:12:04;2.60;;;0.98;;
31126;SDS011;17775;57.948;12.514;2023-04-01T08:22:04;5.68;;;0.93;;
31126;SDS011;17775;57.948;12.514;2023-04-01T08:24:39;2.83;;;1.33;;
31126;SDS011;17775;57.948;12.514;2023-04-01T08:32:39;2.70;;;1.33;;
31126;SDS011;17775;57.948;12.514;2023-04-01T08:37:47;1.20;;;0.65;;
31126;SDS011;17775;57.948;12.514;2023-04-01T08:48:23;1.90;;;0.60;;
31126;SDS011;17775;57.948;12.514;2023-04-01T08:51:15;3.20;;;1.48;;
31126;SDS011;17775;57.948;12.514;2023-04-01T09:01:45;1.92;;;0.80;;
31126;SDS011;17775;57.948;12.514;2023-04-01T09:26:59;5.30;;;0.80;;
31126;SDS011;17775;57.948;12.514;2023-04-01T09:32:16;1.50;;;0.77;;
31126;SDS011;17775;57.948;12.514;2023-04-01T09:50:39;2.15;;;1.10;;
31126;SDS011;17775;57.948;12.514;2023-04-01T09:56:19;1.70;;;0.80;;
31126;SDS011;17775;57.948;12.514;2023-04-01T11:08:24;1.75;;;0.77;;
31126;SDS011;17775;57.948;12.514;2023-04-01T11:26:33;2.65;;;1.17;;
31126;SDS011;17775;57.948;12.514;2023-04-01T11:31:43;3.63;;;1.15;;
31126;SDS011;17775;57.948;12.514;2023-04-01T11:39:58;2.38;;;0.90;;
31126;SDS011;17775;57.948;12.514;2023-04-01T12:19:09;0.75;;;0.50;;
31126;SDS011;17775;57.948;12.514;2023-04-01T12:37:29;1.10;;;0.40;;
31126;SDS011;17775;57.948;12.514;2023-04-01T12:40:06;1.25;;;1.15;;
31126;SDS011;17775;57.948;12.514;2023-04-01T12:45:30;1.15;;;0.70;;
31126;SDS011;17775;57.948;12.514;2023-04-01T12:50:50;2.35;;;0.60;;
31126;SDS011;17775;57.948;12.514;2023-04-01T14:01:48;2.28;;;1.00;;
31126;SDS011;17775;57.948;12.514;2023-04-01T14:42:59;1.05;;;0.68;;
31126;SDS011;17775;57.948;12.514;2023-04-01T14:48:04;1.98;;;0.80;;
31126;SDS011;17775;57.948;12.514;2023-04-01T14:50:49;0.95;;;0.80;;
31126;SDS011;17775;57.948;12.514;2023-04-01T15:17:42;1.38;;;0.90;;
31126;SDS011;17775;57.948;12.514;2023-04-01T15:37:33;1.35;;;0.68;;
31126;SDS011;17775;57.948;12.514;2023-04-01T15:40:22;1.92;;;0.88;;
31126;SDS011;17775;57.948;12.514;2023-04-01T15:45:41;1.42;;;0.60;;
31126;SDS011;17775;57.948;12.514;2023-04-01T15:48:33;2.00;;;1.00;;
31126;SDS011;17775;57.948;12.514;2023-04-01T16:00:25;0.68;;;0.45;;
31126;SDS011;17775;57.948;12.514;2023-04-01T16:07:57;0.80;;;0.50;;
31126;SDS011;17775;57.948;12.514;2023-04-01T16:10:38;8.55;;;1.13;;
31126;SDS011;17775;57.948;12.514;2023-04-01T16:13:19;1.38;;;0.50;;
31126;SDS011;17775;57.948;12.514;2023-04-01T16:15:52;0.98;;;0.57;;
31126;SDS011;17775;57.948;12.514;2023-04-01T16:21:14;2.45;;;0.73;;
31126;SDS011;17775;57.948;12.514;2023-04-01T16:46:32;2.00;;;1.10;;
31126;SDS011;17775;57.948;12.514;2023-04-01T16:56:40;1.92;;;0.40;;
31126;SDS011;17775;57.948;12.514;2023-04-01T16:59:16;5.57;;;0.70;;
31126;SDS011;17775;57.948;12.514;2023-04-01T17:08:47;1.70;;;0.50;;
31126;SDS011;17775;57.948;12.514;2023-04-01T17:17:14;1.83;;;0.50;;
31126;SDS011;17775;57.948;12.514;2023-04-01T17:24:56;1.08;;;0.50;;
31126;SDS011;17775;57.948;12.514;2023-04-01T17:52:48;1.00;;;0.60;;
31126;SDS011;17775;57.948;12.514;2023-04-01T18:00:19;2.35;;;0.90;;
31126;SDS011;17775;57.948;12.514;2023-04-01T18:05:40;1.63;;;0.90;;
31126;SDS011;17775;57.948;12.514;2023-04-01T18:10:41;1.73;;;0.68;;
31126;SDS011;17775;57.948;12.514;2023-04-01T18:21:19;1.38;;;0.55;;
31126;SDS011;17775;57.948;12.514;2023-04-01T18:23:51;1.40;;;0.52;;
31126;SDS011;17775;57.948;12.514;2023-04-01T18:26:34;0.63;;;0.40;;
31126;SDS011;17775;57.948;12.514;2023-04-01T18:29:09;0.98;;;0.57;;
31126;SDS011;17775;57.948;12.514;2023-04-01T18:31:42;5.85;;;0.65;;
31126;SDS011;17775;57.948;12.514;2023-04-01T18:36:50;1.20;;;0.60;;
31126;SDS011;17775;57.948;12.514;2023-04-01T18:39:33;1.20;;;0.63;;
31126;SDS011;17775;57.948;12.514;2023-04-01T18:42:50;1.27;;;0.50;;
31126;SDS011;17775;57.948;12.514;2023-04-01T18:50:01;1.70;;;0.68;;
31126;SDS011;17775;57.948;12.514;2023-04-01T18:52:31;0.85;;;0.55;;
31126;SDS011;17775;57.948;12.514;2023-04-01T19:00:08;1.33;;;0.57;;
31126;SDS011;17775;57.948;12.514;2023-04-01T19:02:41;1.33;;;0.68;;
31126;SDS011;17775;57.948;12.514;2023-04-01T19:05:54;0.95;;;0.80;;
31126;SDS011;17775;57.948;12.514;2023-04-01T19:08:16;1.60;;;0.60;;
31126;SDS011;17775;57.948;12.514;2023-04-01T19:21:01;0.70;;;0.60;;
31126;SDS011;17775;57.948;12.514;2023-04-01T19:26:25;1.08;;;0.57;;
31126;SDS011;17775;57.948;12.514;2023-04-01T19:28:59;1.92;;;0.80;;
31126;SDS011;17775;57.948;12.514;2023-04-01T19:36:46;1.85;;;0.88;;
31126;SDS011;17775;57.948;12.514;2023-04-01T19:42:05;1.15;;;0.70;;
31126;SDS011;17775;57.948;12.514;2023-04-01T19:49:40;4.97;;;2.35;;
31126;SDS011;17775;57.948;12.514;2023-04-01T19:52:14;5.60;;;2.38;;
31126;SDS011;17775;57.948;12.514;2023-04-01T20:04:49;4.72;;;2.35;;
31126;SDS011;17775;57.948;12.514;2023-04-01T20:17:51;7.03;;;3.72;;
31126;SDS011;17775;57.948;12.514;2023-04-01T20:20:21;9.95;;;4.63;;
31126;SDS011;17775;57.948;12.514;2023-04-01T20:22:59;7.35;;;3.83;;
31126;SDS011;17775;57.948;12.514;2023-04-01T20:25:30;6.35;;;2.70;;
31126;SDS011;17775;57.948;12.514;2023-04-01T20:46:19;8.35;;;3.15;;
31126;SDS011;17775;57.948;12.514;2023-04-01T20:51:32;2.40;;;1.30;;
31126;SDS011;17775;57.948;12.514;2023-04-01T20:54:13;4.72;;;1.60;;
31126;SDS011;17775;57.948;12.514;2023-04-01T21:01:44;4.45;;;1.63;;
31126;SDS011;17775;57.948;12.514;2023-04-01T21:12:11;15.05;;;6.70;;
31126;SDS011;17775;57.948;12.514;2023-04-01T21:18:13;12.77;;;5.30;;
31126;SDS011;17775;57.948;12.514;2023-04-01T21:29:44;7.38;;;4.07;;
31126;SDS011;17775;57.948;12.514;2023-04-01T21:41:49;4.78;;;2.33;;
31126;SDS011;17775;57.948;12.514;2023-04-01T21:52:37;9.23;;;3.95;;
31126;SDS011;17775;57.948;12.514;2023-04-01T22:00:24;11.18;;;4.13;;
31126;SDS011;17775;57.948;12.514;2023-04-01T22:05:30;4.80;;;2.13;;
31126;SDS011;17775;57.948;12.514;2023-04-01T22:18:29;4.38;;;1.92;;
31126;SDS011;17775;57.948;12.514;2023-04-01T22:21:05;4.70;;;2.17;;
31126;SDS011;17775;57.948;12.514;2023-04-01T22:29:16;5.70;;;2.33;;
31126;SDS011;17775;57.948;12.514;2023-04-01T22:31:14;5.82;;;2.75;;
31126;SDS011;17775;57.948;12.514;2023-04-01T22:36:29;7.55;;;2.22;;
31126;SDS011;17775;57.948;12.514;2023-04-01T22:44:16;6.75;;;3.00;;
31126;SDS011;17775;57.948;12.514;2023-04-01T22:49:20;4.68;;;2.70;;
31126;SDS011;17775;57.948;12.514;2023-04-01T22:51:51;4.53;;;2.30;;
31126;SDS011;17775;57.948;12.514;2023-04-01T22:54:24;3.50;;;1.75;;
31126;SDS011;17775;57.948;12.514;2023-04-01T22:57:00;14.50;;;6.45;;
31126;SDS011;17775;57.948;12.514;2023-04-01T23:02:06;4.35;;;1.67;;
31126;SDS011;17775;57.948;12.514;2023-04-01T23:04:37;4.30;;;1.75;;
31126;SDS011;17775;57.948;12.514;2023-04-01T23:07:11;4.40;;;1.80;;
31126;SDS011;17775;57.948;12.514;2023-04-01T23:09:42;3.53;;;1.55;;
31126;SDS011;17775;57.948;12.514;2023-04-01T23:12:10;3.50;;;1.75;;
31126;SDS011;17775;57.948;12.514;2023-04-01T23:14:58;4.38;;;1.88;;
31126;SDS011;17775;57.948;12.514;2023-04-01T23:20:10;3.70;;;1.45;;
31126;SDS011;17775;57.948;12.514;2023-04-01T23:27:43;6.57;;;2.10;;
31126;SDS011;17775;57.948;12.514;2023-04-01T23:33:02;5.50;;;3.05;;
31126;SDS011;17775;57.948;12.514;2023-04-01T23:35:45;3.15;;;1.95;;
31126;SDS011;17775;57.948;12.514;2023-04-01T23:38:12;4.72;;;1.70;;
31126;SDS011;17775;57.948;12.514;2023-04-01T23:40:39;2.17;;;1.52;;
31126;SDS011;17775;57.948;12.514;2023-04-01T23:46:02;2.03;;;1.00;;
31126;SDS011;17775;57.948;12.514;2023-04-01T23:48:33;2.20;;;0.88;;
31126;SDS011;17775;57.948;12.514;2023-04-01T23:51:01;4.00;;;1.00;;
31126;SDS011;17775;57.948;12.514;2023-04-01T23:53:30;2.40;;;1.33;;
31126;SDS011;17775;57.948;12.514;2023-04-01T23:55:57;2.88;;;1.50;;
31126;SDS011;17775;57.948;12.514;2023-04-01T23:58:41;3.70;;;1.83;;
